Time;durP1;ratioP1;P1;durP2;ratioP2;P2;SDS_P1;SDS_P2;PMS_P1;PMS_P2;Temp;Humidity;BMP_temperature;BMP_pressure;BME280_temperature;BME280_humidity;BME280_pressure;Samples;Min_cycle;Max_cycle;Signal;HPM_P1;HPM_P2
2021/05/22 00:00:53;;;;;;;3.63;2.50;;;;;;;;;;2052616;28;20760;-63
2021/05/22 00:01:53;;;;;;;4.78;2.20;;;;;;;;;;2054906;28;20668;-62
2021/05/22 00:02:54;;;;;;;4.10;2.55;;;;;;;;;;2054754;28;20196;-62
2021/05/22 00:03:55;;;;;;;6.63;2.45;;;;;;;;;;2057344;28;20633;-60
2021/05/22 00:04:55;;;;;;;2.38;2.17;;;;;;;;;;2057591;28;20713;-60
2021/05/22 00:05:56;;;;;;;4.15;2.17;;;;;;;;;;2049279;28;20187;-62
2021/05/22 00:06:56;;;;;;;3.42;2.15;;;;;;;;;;2047028;28;20681;-62
2021/05/22 00:07:56;;;;;;;2.53;2.28;;;;;;;;;;2047984;28;20213;-61
2021/05/22 00:08:57;;;;;;;2.85;2.42;;;;;;;;;;2041269;29;20186;-64
2021/05/22 00:09:57;;;;;;;3.88;2.55;;;;;;;;;;2047443;28;20199;-60
2021/05/22 00:10:57;;;;;;;3.08;2.40;;;;;;;;;;2057726;28;20625;-61
2021/05/22 00:11:58;;;;;;;4.40;2.20;;;;;;;;;;2057367;28;20186;-60
2021/05/22 00:12:58;;;;;;;3.88;2.30;;;;;;;;;;2054361;28;20174;-61
2021/05/22 00:13:58;;;;;;;2.67;2.40;;;;;;;;;;2056005;28;20602;-62
2021/05/22 00:14:58;;;;;;;5.28;2.95;;;;;;;;;;2057531;28;20178;-61
2021/05/22 00:15:59;;;;;;;3.10;2.60;;;;;;;;;;2056416;28;20181;-61
2021/05/22 00:16:59;;;;;;;5.32;2.88;;;;;;;;;;2054838;28;20661;-61
2021/05/22 00:17:59;;;;;;;2.67;2.13;;;;;;;;;;2056513;28;20293;-60
2021/05/22 00:19:00;;;;;;;3.72;2.60;;;;;;;;;;2057109;28;20612;-60
2021/05/22 00:20:00;;;;;;;4.85;2.67;;;;;;;;;;2056397;28;20198;-61
2021/05/22 00:21:00;;;;;;;2.72;2.42;;;;;;;;;;2058136;28;20183;-62
2021/05/22 00:22:01;;;;;;;3.60;2.65;;;;;;;;;;2056311;28;20182;-62
2021/05/22 00:23:01;;;;;;;3.03;2.58;;;;;;;;;;2055741;28;20174;-62
2021/05/22 00:24:02;;;;;;;3.05;2.08;;;;;;;;;;2054970;28;20178;-62
2021/05/22 00:25:05;;;;;;;6.07;2.33;;;;;;;;;;2057224;28;20597;-62
2021/05/22 00:26:05;;;;;;;4.10;2.33;;;;;;;;;;2057321;28;20236;-61
2021/05/22 00:27:05;;;;;;;3.83;2.67;;;;;;;;;;2056690;28;20201;-61
2021/05/22 00:28:06;;;;;;;4.30;2.50;;;;;;;;;;2055916;28;20198;-61
2021/05/22 00:29:06;;;;;;;3.92;2.10;;;;;;;;;;2057167;28;20627;-60
2021/05/22 00:30:07;;;;;;;5.28;2.80;;;;;;;;;;2056027;28;20178;-61
2021/05/22 00:31:07;;;;;;;4.97;2.35;;;;;;;;;;2057758;28;20171;-61
2021/05/22 00:32:08;;;;;;;3.50;2.30;;;;;;;;;;2056901;28;20672;-60
2021/05/22 00:33:08;;;;;;;3.67;2.38;;;;;;;;;;2057356;28;20238;-61
2021/05/22 00:34:08;;;;;;;4.28;2.70;;;;;;;;;;2056442;28;20202;-61
2021/05/22 00:35:09;;;;;;;3.47;2.42;;;;;;;;;;2056994;28;20657;-63
2021/05/22 00:36:09;;;;;;;3.33;2.10;;;;;;;;;;2055199;28;20182;-61
2021/05/22 00:37:09;;;;;;;8.68;2.50;;;;;;;;;;2056882;28;20206;-59
2021/05/22 00:38:10;;;;;;;4.38;2.20;;;;;;;;;;2054922;28;20190;-61
2021/05/22 00:39:10;;;;;;;3.80;2.55;;;;;;;;;;2057616;28;20245;-61
2021/05/22 00:40:11;;;;;;;2.92;2.10;;;;;;;;;;2056814;28;20174;-61
2021/05/22 00:41:11;;;;;;;3.00;2.42;;;;;;;;;;2056513;28;20185;-61
2021/05/22 00:42:11;;;;;;;4.13;2.53;;;;;;;;;;2055937;28;20568;-61
2021/05/22 00:43:11;;;;;;;3.90;2.28;;;;;;;;;;2057273;28;20193;-62
2021/05/22 00:44:12;;;;;;;4.63;3.65;;;;;;;;;;2053966;28;20237;-61
2021/05/22 00:45:16;;;;;;;3.15;2.38;;;;;;;;;;2056117;28;20182;-62
2021/05/22 00:46:16;;;;;;;3.30;2.72;;;;;;;;;;2060686;28;20181;-61
2021/05/22 00:47:17;;;;;;;3.40;2.45;;;;;;;;;;2057354;28;20214;-62
2021/05/22 00:48:19;;;;;;;5.85;2.50;;;;;;;;;;2052342;28;20244;-62
2021/05/22 00:49:19;;;;;;;4.45;2.50;;;;;;;;;;2049111;28;20693;-62
2021/05/22 00:50:22;;;;;;;3.05;2.70;;;;;;;;;;2058973;28;20182;-60
2021/05/22 00:51:23;;;;;;;5.10;2.80;;;;;;;;;;2060041;28;20206;-61
2021/05/22 00:52:23;;;;;;;5.28;2.92;;;;;;;;;;2062343;28;20167;-63
2021/05/22 00:53:23;;;;;;;4.05;2.20;;;;;;;;;;2061313;28;20273;-62
2021/05/22 00:54:24;;;;;;;2.60;2.40;;;;;;;;;;2063292;28;20206;-62
2021/05/22 00:55:24;;;;;;;3.15;1.90;;;;;;;;;;2061969;28;20172;-61
2021/05/22 00:56:24;;;;;;;2.40;2.20;;;;;;;;;;2062773;28;20197;-61
2021/05/22 00:57:25;;;;;;;3.17;2.60;;;;;;;;;;2061216;28;20257;-58
2021/05/22 00:58:26;;;;;;;4.50;2.63;;;;;;;;;;2059376;28;20186;-61
2021/05/22 00:59:26;;;;;;;3.17;2.65;;;;;;;;;;2050062;28;20171;-61
2021/05/22 01:00:36;;;;;;;5.82;2.40;;;;;;;;;;2049753;29;20206;-62
2021/05/22 01:01:37;;;;;;;3.58;2.55;;;;;;;;;;2054443;28;20579;-57
2021/05/22 01:02:37;;;;;;;4.18;2.28;;;;;;;;;;2054524;28;20261;-63
2021/05/22 01:03:42;;;;;;;6.40;2.85;;;;;;;;;;2057278;28;20190;-62
2021/05/22 01:04:42;;;;;;;2.38;2.15;;;;;;;;;;2047669;28;20183;-56
2021/05/22 01:05:43;;;;;;;2.95;2.35;;;;;;;;;;2048737;28;20175;-58
2021/05/22 01:06:43;;;;;;;2.95;2.25;;;;;;;;;;2048014;28;20191;-58
2021/05/22 01:07:47;;;;;;;3.65;2.30;;;;;;;;;;2050209;28;20285;-59
2021/05/22 01:08:49;;;;;;;3.63;2.28;;;;;;;;;;2055680;28;20194;-61
2021/05/22 01:09:51;;;;;;;5.82;2.47;;;;;;;;;;2056692;28;20175;-60
2021/05/22 01:10:56;;;;;;;3.55;2.13;;;;;;;;;;2046613;28;20210;-58
2021/05/22 01:11:58;;;;;;;4.32;2.55;;;;;;;;;;2041201;28;20780;-60
2021/05/22 01:12:58;;;;;;;6.88;2.60;;;;;;;;;;2045022;28;20669;-59
2021/05/22 01:14:02;;;;;;;6.35;2.38;;;;;;;;;;2056590;28;20178;-61
2021/05/22 01:15:22;;;;;;;2.30;2.08;;;;;;;;;;2054664;28;20174;-59
2021/05/22 01:16:22;;;;;;;3.67;2.53;;;;;;;;;;2053815;28;20727;-60
2021/05/22 01:17:23;;;;;;;4.43;2.30;;;;;;;;;;2056170;28;20174;-60
2021/05/22 01:18:23;;;;;;;3.60;1.80;;;;;;;;;;2053928;28;20300;-59
2021/05/22 01:19:33;;;;;;;4.70;2.20;;;;;;;;;;2047679;28;20684;-63
2021/05/22 01:20:45;;;;;;;4.22;2.72;;;;;;;;;;2042998;29;20206;-61
2021/05/22 01:21:47;;;;;;;5.10;2.50;;;;;;;;;;2044463;28;20584;-60
2021/05/22 01:22:52;;;;;;;2.70;2.30;;;;;;;;;;2052766;28;20174;-61
2021/05/22 01:24:03;;;;;;;2.70;2.30;;;;;;;;;;2056855;28;20185;-61
2021/05/22 01:25:08;;;;;;;4.00;2.05;;;;;;;;;;2048868;28;20234;-61
2021/05/22 01:26:09;;;;;;;3.85;2.25;;;;;;;;;;2039766;29;20170;-61
2021/05/22 01:27:10;;;;;;;3.50;2.22;;;;;;;;;;2048041;28;20213;-61
2021/05/22 01:28:11;;;;;;;4.45;2.58;;;;;;;;;;2055003;28;20253;-61
2021/05/22 01:29:12;;;;;;;5.03;2.33;;;;;;;;;;2056336;28;20265;-61
2021/05/22 01:30:12;;;;;;;4.65;2.58;;;;;;;;;;2057260;28;20192;-62
2021/05/22 01:31:13;;;;;;;2.88;2.25;;;;;;;;;;2048538;28;20189;-61
2021/05/22 01:32:13;;;;;;;5.50;2.53;;;;;;;;;;2039670;29;20184;-60
2021/05/22 01:33:14;;;;;;;2.72;2.40;;;;;;;;;;2048038;28;21481;-59
2021/05/22 01:34:14;;;;;;;3.33;2.28;;;;;;;;;;2056905;28;20584;-60
2021/05/22 01:35:15;;;;;;;3.58;1.83;;;;;;;;;;2056267;28;20213;-62
2021/05/22 01:36:16;;;;;;;2.45;2.00;;;;;;;;;;2056285;28;20256;-61
2021/05/22 01:37:16;;;;;;;2.75;2.50;;;;;;;;;;2056791;28;20192;-61
2021/05/22 01:38:16;;;;;;;2.53;1.95;;;;;;;;;;2056565;28;20188;-60
2021/05/22 01:39:16;;;;;;;3.70;2.55;;;;;;;;;;2055283;28;20167;-62
2021/05/22 01:40:17;;;;;;;5.07;2.35;;;;;;;;;;2055423;28;20185;-60
2021/05/22 01:41:17;;;;;;;3.63;2.20;;;;;;;;;;2055208;28;20174;-60
2021/05/22 01:42:18;;;;;;;4.95;2.30;;;;;;;;;;2056239;28;20520;-61
2021/05/22 01:43:21;;;;;;;8.25;2.65;;;;;;;;;;2054012;28;20699;-62
2021/05/22 01:44:22;;;;;;;3.63;2.08;;;;;;;;;;2054060;28;20727;-60
2021/05/22 01:45:27;;;;;;;4.97;2.20;;;;;;;;;;2056815;28;20605;-61
2021/05/22 01:46:28;;;;;;;6.25;2.50;;;;;;;;;;2055989;28;20177;-59
2021/05/22 01:47:29;;;;;;;3.28;2.25;;;;;;;;;;2054101;28;20174;-62
2021/05/22 01:48:30;;;;;;;2.78;2.50;;;;;;;;;;2054931;28;20661;-59
2021/05/22 01:49:32;;;;;;;3.47;2.40;;;;;;;;;;2055424;28;20230;-61
2021/05/22 01:50:33;;;;;;;2.75;2.03;;;;;;;;;;2055875;28;20202;-61
2021/05/22 01:51:35;;;;;;;2.28;2.00;;;;;;;;;;2056373;28;20174;-61
2021/05/22 01:52:43;;;;;;;2.60;2.40;;;;;;;;;;2054728;28;20162;-62
2021/05/22 01:53:43;;;;;;;4.95;2.42;;;;;;;;;;2056923;28;20213;-60
2021/05/22 01:54:45;;;;;;;2.67;2.47;;;;;;;;;;2056916;28;20194;-58
2021/05/22 01:55:46;;;;;;;2.60;2.40;;;;;;;;;;2057079;28;20174;-60
2021/05/22 01:56:47;;;;;;;3.88;2.20;;;;;;;;;;2056316;28;20178;-59
2021/05/22 01:57:47;;;;;;;4.63;1.80;;;;;;;;;;2053248;28;20278;-60
2021/05/22 01:58:48;;;;;;;3.67;2.40;;;;;;;;;;2055920;28;20604;-61
2021/05/22 01:59:48;;;;;;;3.13;1.90;;;;;;;;;;2057134;28;20532;-60
2021/05/22 02:00:49;;;;;;;2.78;2.05;;;;;;;;;;2056428;28;20657;-61
2021/05/22 02:01:50;;;;;;;2.22;1.95;;;;;;;;;;2055146;28;20221;-60
2021/05/22 02:03:08;;;;;;;2.75;1.70;;;;;;;;;;2053780;28;20186;-59
2021/05/22 02:04:08;;;;;;;3.17;1.88;;;;;;;;;;2055714;28;20178;-58
2021/05/22 02:05:08;;;;;;;3.65;2.13;;;;;;;;;;2056424;28;20649;-59
2021/05/22 02:06:15;;;;;;;4.13;2.05;;;;;;;;;;2048386;28;20261;-61
2021/05/22 02:07:17;;;;;;;3.28;2.13;;;;;;;;;;2048139;28;20174;-60
2021/05/22 02:08:19;;;;;;;2.72;2.03;;;;;;;;;;2048007;28;20205;-60
2021/05/22 02:09:20;;;;;;;2.28;2.08;;;;;;;;;;2048959;28;20283;-60
2021/05/22 02:10:20;;;;;;;2.80;2.25;;;;;;;;;;2053400;28;20217;-62
2021/05/22 02:11:21;;;;;;;2.38;2.17;;;;;;;;;;2055313;28;20675;-59
2021/05/22 02:12:22;;;;;;;5.05;2.47;;;;;;;;;;2056417;28;20661;-60
2021/05/22 02:13:22;;;;;;;2.15;1.95;;;;;;;;;;2052467;28;20257;-60
2021/05/22 02:14:26;;;;;;;5.03;2.90;;;;;;;;;;2056274;28;20189;-60
2021/05/22 02:15:27;;;;;;;7.55;2.28;;;;;;;;;;2052916;28;20244;-58
2021/05/22 02:16:28;;;;;;;4.63;2.15;;;;;;;;;;2056355;28;20202;-60
2021/05/22 02:17:28;;;;;;;6.00;2.20;;;;;;;;;;2055407;28;20719;-61
2021/05/22 02:18:31;;;;;;;5.80;2.30;;;;;;;;;;2046399;28;20175;-61
2021/05/22 02:19:32;;;;;;;3.97;2.15;;;;;;;;;;2048509;28;20175;-61
2021/05/22 02:20:33;;;;;;;4.60;2.40;;;;;;;;;;2056421;28;20249;-62
2021/05/22 02:21:35;;;;;;;6.05;2.35;;;;;;;;;;2048368;28;20254;-62
2021/05/22 02:22:37;;;;;;;3.55;2.00;;;;;;;;;;2047679;28;20190;-60
2021/05/22 02:23:43;;;;;;;3.92;2.33;;;;;;;;;;2054165;28;20228;-60
2021/05/22 02:24:43;;;;;;;4.78;2.20;;;;;;;;;;2053594;28;20201;-57
2021/05/22 02:25:43;;;;;;;2.95;1.98;;;;;;;;;;2057589;28;20249;-63
2021/05/22 02:26:44;;;;;;;4.68;2.25;;;;;;;;;;2054996;28;20202;-63
2021/05/22 02:27:45;;;;;;;3.78;2.42;;;;;;;;;;2057014;28;20680;-59
2021/05/22 02:28:48;;;;;;;4.10;2.38;;;;;;;;;;2057066;28;20296;-61
2021/05/22 02:29:48;;;;;;;3.60;2.20;;;;;;;;;;2056214;28;20224;-61
2021/05/22 02:30:49;;;;;;;4.57;2.17;;;;;;;;;;2056433;28;20210;-61
2021/05/22 02:31:50;;;;;;;5.05;2.22;;;;;;;;;;2054186;28;20194;-63
2021/05/22 02:32:51;;;;;;;2.53;2.03;;;;;;;;;;2052817;28;20175;-61
2021/05/22 02:33:53;;;;;;;3.25;2.45;;;;;;;;;;2052190;28;20175;-60
2021/05/22 02:34:54;;;;;;;5.05;2.58;;;;;;;;;;2057115;28;20214;-62
2021/05/22 02:35:54;;;;;;;3.63;2.50;;;;;;;;;;2055030;28;20173;-62
2021/05/22 02:36:55;;;;;;;2.50;2.25;;;;;;;;;;2056740;28;20687;-60
2021/05/22 02:37:56;;;;;;;4.28;2.20;;;;;;;;;;2056463;28;20708;-62
2021/05/22 02:38:57;;;;;;;5.03;2.22;;;;;;;;;;2047424;28;20270;-61
2021/05/22 02:39:59;;;;;;;6.18;2.72;;;;;;;;;;2049013;28;20198;-60
2021/05/22 02:41:02;;;;;;;4.75;2.33;;;;;;;;;;2057287;28;20188;-60
2021/05/22 02:42:03;;;;;;;4.05;2.50;;;;;;;;;;2045274;28;20720;-62
2021/05/22 02:43:05;;;;;;;4.70;2.60;;;;;;;;;;2045894;28;20183;-61
2021/05/22 02:44:06;;;;;;;3.25;2.30;;;;;;;;;;2057381;28;20178;-61
2021/05/22 02:45:08;;;;;;;5.13;2.58;;;;;;;;;;2047747;28;20213;-62
2021/05/22 02:46:08;;;;;;;7.00;2.30;;;;;;;;;;2046463;28;20689;-61
2021/05/22 02:47:09;;;;;;;3.63;2.13;;;;;;;;;;2056682;28;20229;-60
2021/05/22 02:48:14;;;;;;;5.47;2.38;;;;;;;;;;2055847;28;20309;-61
2021/05/22 02:49:18;;;;;;;3.80;2.40;;;;;;;;;;2052481;28;20194;-60
2021/05/22 02:50:19;;;;;;;6.90;2.10;;;;;;;;;;2056764;28;20277;-57
2021/05/22 02:51:21;;;;;;;5.13;2.38;;;;;;;;;;2057401;28;20221;-59
2021/05/22 02:52:21;;;;;;;2.30;2.10;;;;;;;;;;2053750;28;20179;-60
2021/05/22 02:53:23;;;;;;;2.53;2.33;;;;;;;;;;2053510;28;20645;-56
2021/05/22 02:54:25;;;;;;;3.50;2.20;;;;;;;;;;2055114;28;20278;-61
2021/05/22 02:55:26;;;;;;;3.67;2.33;;;;;;;;;;2056139;28;20206;-60
2021/05/22 02:56:26;;;;;;;5.78;2.13;;;;;;;;;;2057135;28;20221;-59
2021/05/22 02:57:27;;;;;;;2.45;2.25;;;;;;;;;;2055925;28;20166;-61
2021/05/22 02:58:27;;;;;;;4.30;2.25;;;;;;;;;;2057671;28;20171;-61
2021/05/22 02:59:30;;;;;;;4.35;2.47;;;;;;;;;;2056868;28;20669;-59
2021/05/22 03:00:31;;;;;;;5.70;2.45;;;;;;;;;;2055994;28;20170;-54
2021/05/22 03:01:31;;;;;;;5.50;2.60;;;;;;;;;;2056514;28;20171;-59
2021/05/22 03:02:36;;;;;;;4.07;2.13;;;;;;;;;;2055889;28;20214;-60
2021/05/22 03:03:36;;;;;;;3.50;2.28;;;;;;;;;;2055056;28;20186;-60
2021/05/22 03:04:37;;;;;;;5.65;2.55;;;;;;;;;;2054335;28;20187;-59
2021/05/22 03:05:37;;;;;;;3.05;2.22;;;;;;;;;;2056071;28;20297;-59
2021/05/22 03:06:38;;;;;;;2.78;2.30;;;;;;;;;;2055944;28;20229;-61
2021/05/22 03:07:38;;;;;;;4.78;2.38;;;;;;;;;;2054874;28;20382;-60
2021/05/22 03:08:42;;;;;;;3.58;1.98;;;;;;;;;;2057030;28;20779;-63
2021/05/22 03:09:44;;;;;;;5.32;2.17;;;;;;;;;;2055010;28;20178;-61
2021/05/22 03:10:46;;;;;;;3.05;2.17;;;;;;;;;;2054055;28;20182;-61
2021/05/22 03:11:46;;;;;;;4.13;2.00;;;;;;;;;;2056665;28;20174;-61
2021/05/22 03:12:46;;;;;;;3.75;2.00;;;;;;;;;;2056807;28;20649;-62
2021/05/22 03:13:47;;;;;;;3.92;2.53;;;;;;;;;;2054741;28;20187;-61
2021/05/22 03:14:47;;;;;;;3.58;1.83;;;;;;;;;;2056796;28;20161;-62
2021/05/22 03:15:48;;;;;;;4.07;2.25;;;;;;;;;;2057700;28;20222;-61
2021/05/22 03:16:48;;;;;;;4.22;2.00;;;;;;;;;;2058209;28;20176;-60
2021/05/22 03:17:48;;;;;;;2.65;1.90;;;;;;;;;;2057359;28;20212;-60
2021/05/22 03:18:48;;;;;;;2.78;1.60;;;;;;;;;;2057789;28;20226;-61
2021/05/22 03:19:49;;;;;;;5.80;2.78;;;;;;;;;;2058259;28;20278;-61
2021/05/22 03:20:49;;;;;;;3.30;2.40;;;;;;;;;;2057479;28;20181;-62
2021/05/22 03:21:49;;;;;;;2.97;1.77;;;;;;;;;;2058590;28;20664;-62
2021/05/22 03:22:49;;;;;;;2.95;2.17;;;;;;;;;;2057399;28;20595;-60
2021/05/22 03:23:49;;;;;;;3.78;2.40;;;;;;;;;;2058090;28;20190;-59
2021/05/22 03:24:50;;;;;;;3.17;2.17;;;;;;;;;;2057613;28;20213;-61
2021/05/22 03:25:50;;;;;;;3.88;2.13;;;;;;;;;;2058211;28;20173;-61
2021/05/22 03:26:51;;;;;;;5.18;2.53;;;;;;;;;;2057589;28;20202;-60
2021/05/22 03:27:51;;;;;;;5.75;2.17;;;;;;;;;;2057068;28;20229;-61
2021/05/22 03:28:51;;;;;;;2.60;2.05;;;;;;;;;;2055076;28;20250;-60
2021/05/22 03:29:51;;;;;;;3.10;2.05;;;;;;;;;;2058123;28;20182;-61
2021/05/22 03:30:52;;;;;;;2.65;2.13;;;;;;;;;;2049549;29;20175;-59
2021/05/22 03:31:52;;;;;;;2.17;2.03;;;;;;;;;;2049845;29;20550;-61
2021/05/22 03:32:52;;;;;;;3.65;2.10;;;;;;;;;;2057220;28;20250;-61
2021/05/22 03:33:53;;;;;;;5.05;2.35;;;;;;;;;;2058177;28;20901;-62
2021/05/22 03:34:53;;;;;;;6.03;2.58;;;;;;;;;;2058049;28;20190;-59
2021/05/22 03:35:53;;;;;;;2.90;2.33;;;;;;;;;;2054619;28;20202;-62
2021/05/22 03:36:53;;;;;;;2.95;2.08;;;;;;;;;;2058137;28;20641;-62
2021/05/22 03:37:54;;;;;;;4.85;1.95;;;;;;;;;;2057346;28;20214;-61
2021/05/22 03:38:54;;;;;;;3.95;1.92;;;;;;;;;;2055474;28;20178;-61
2021/05/22 03:39:54;;;;;;;3.60;2.08;;;;;;;;;;2058333;28;20174;-59
2021/05/22 03:40:54;;;;;;;3.70;2.03;;;;;;;;;;2057252;28;20229;-61
2021/05/22 03:41:55;;;;;;;3.92;1.95;;;;;;;;;;2049575;29;20239;-63
2021/05/22 03:42:55;;;;;;;2.72;1.92;;;;;;;;;;2048892;29;20171;-63
2021/05/22 03:43:55;;;;;;;3.85;2.63;;;;;;;;;;2052430;28;20187;-60
2021/05/22 03:44:55;;;;;;;3.58;1.92;;;;;;;;;;2052758;28;20175;-63
2021/05/22 03:45:57;;;;;;;2.25;1.90;;;;;;;;;;2057590;28;20589;-61
2021/05/22 03:46:57;;;;;;;3.33;2.50;;;;;;;;;;2054787;28;20452;-61
2021/05/22 03:47:58;;;;;;;3.15;2.03;;;;;;;;;;2072022;23;20203;-57
2021/05/22 03:48:58;;;;;;;2.88;2.05;;;;;;;;;;2061495;28;20185;-60
2021/05/22 03:49:58;;;;;;;5.03;1.88;;;;;;;;;;2067518;28;20165;-59
2021/05/22 03:50:59;;;;;;;4.65;2.25;;;;;;;;;;2072994;28;20196;-61
2021/05/22 03:51:59;;;;;;;2.90;2.08;;;;;;;;;;2065310;28;20177;-61
2021/05/22 03:52:59;;;;;;;5.35;2.35;;;;;;;;;;2065085;28;20177;-60
2021/05/22 03:53:59;;;;;;;2.00;1.80;;;;;;;;;;2075243;28;20606;-61
2021/05/22 03:55:00;;;;;;;4.30;2.47;;;;;;;;;;2064303;28;20166;-58
2021/05/22 03:56:00;;;;;;;2.85;2.25;;;;;;;;;;2064337;28;20185;-60
2021/05/22 03:57:00;;;;;;;2.42;2.08;;;;;;;;;;2072753;28;20259;-58
2021/05/22 03:58:00;;;;;;;3.88;2.13;;;;;;;;;;2074844;28;20197;-61
2021/05/22 03:59:01;;;;;;;2.80;2.20;;;;;;;;;;2072655;28;20185;-60
2021/05/22 04:00:02;;;;;;;3.72;2.00;;;;;;;;;;2070621;28;20827;-61
2021/05/22 04:01:04;;;;;;;3.40;2.28;;;;;;;;;;2072672;28;20643;-62
2021/05/22 04:02:04;;;;;;;3.58;2.22;;;;;;;;;;2072764;28;20308;-58
2021/05/22 04:03:06;;;;;;;4.57;2.10;;;;;;;;;;2064614;28;20174;-60
2021/05/22 04:04:06;;;;;;;3.65;2.42;;;;;;;;;;2060913;28;20185;-60
2021/05/22 04:05:07;;;;;;;5.63;2.10;;;;;;;;;;2069216;28;20462;-61
2021/05/22 04:06:07;;;;;;;4.35;1.80;;;;;;;;;;2063586;28;20503;-62
2021/05/22 04:07:07;;;;;;;5.97;2.28;;;;;;;;;;2063635;28;20263;-61
2021/05/22 04:08:08;;;;;;;3.35;1.73;;;;;;;;;;2062791;28;20204;-61
2021/05/22 04:09:08;;;;;;;6.22;2.30;;;;;;;;;;2059367;28;20657;-60
2021/05/22 04:10:09;;;;;;;4.20;1.67;;;;;;;;;;2069118;28;20189;-60
2021/05/22 04:11:09;;;;;;;4.85;2.53;;;;;;;;;;2071973;28;20175;-62
2021/05/22 04:12:09;;;;;;;6.35;2.28;;;;;;;;;;2065504;28;20175;-62
2021/05/22 04:13:09;;;;;;;2.97;1.92;;;;;;;;;;2056352;28;20162;-62
2021/05/22 04:14:10;;;;;;;3.45;2.10;;;;;;;;;;2057289;28;20190;-62
2021/05/22 04:15:10;;;;;;;4.25;2.22;;;;;;;;;;2073006;28;20204;-62
2021/05/22 04:16:11;;;;;;;3.13;2.00;;;;;;;;;;2072743;28;20606;-62
2021/05/22 04:17:11;;;;;;;2.80;2.22;;;;;;;;;;2064759;28;20177;-62
2021/05/22 04:18:12;;;;;;;3.13;1.92;;;;;;;;;;2063841;28;20232;-62
2021/05/22 04:19:13;;;;;;;4.25;1.90;;;;;;;;;;2073305;28;20215;-62
2021/05/22 04:20:13;;;;;;;3.05;2.05;;;;;;;;;;2063682;28;20224;-62
2021/05/22 04:21:14;;;;;;;2.65;1.85;;;;;;;;;;2064364;28;20184;-62
2021/05/22 04:22:14;;;;;;;4.15;2.28;;;;;;;;;;2073000;28;20177;-62
2021/05/22 04:23:15;;;;;;;4.82;2.10;;;;;;;;;;2062214;28;20219;-62
2021/05/22 04:24:15;;;;;;;2.40;1.80;;;;;;;;;;2062027;28;20165;-62
2021/05/22 04:25:16;;;;;;;3.42;2.03;;;;;;;;;;2063294;28;20282;-61
2021/05/22 04:26:16;;;;;;;5.90;2.20;;;;;;;;;;2063925;28;20846;-62
2021/05/22 04:27:16;;;;;;;3.58;1.90;;;;;;;;;;2072740;28;20197;-62
2021/05/22 04:28:17;;;;;;;3.78;2.10;;;;;;;;;;2064093;28;20267;-61
2021/05/22 04:29:17;;;;;;;3.30;2.30;;;;;;;;;;2064430;28;20189;-61
2021/05/22 04:30:18;;;;;;;3.08;2.50;;;;;;;;;;2073167;28;20643;-59
2021/05/22 04:31:18;;;;;;;2.67;1.83;;;;;;;;;;2064671;28;20181;-62
2021/05/22 04:32:19;;;;;;;4.18;1.83;;;;;;;;;;2064169;28;20249;-60
2021/05/22 04:33:19;;;;;;;2.85;1.77;;;;;;;;;;2065021;28;20177;-60
2021/05/22 04:34:19;;;;;;;3.72;1.90;;;;;;;;;;2064054;28;20165;-62
2021/05/22 04:35:20;;;;;;;3.13;1.95;;;;;;;;;;2072568;28;20184;-62
2021/05/22 04:36:20;;;;;;;4.45;2.20;;;;;;;;;;2074264;28;20224;-62
2021/05/22 04:37:21;;;;;;;2.40;1.90;;;;;;;;;;2065778;28;20568;-60
2021/05/22 04:38:21;;;;;;;2.92;2.15;;;;;;;;;;2055330;28;20213;-61
2021/05/22 04:39:22;;;;;;;2.50;1.77;;;;;;;;;;2060564;28;20193;-62
2021/05/22 04:40:22;;;;;;;3.05;2.15;;;;;;;;;;2064334;28;20198;-62
2021/05/22 04:41:22;;;;;;;5.00;2.28;;;;;;;;;;2062014;28;20683;-62
2021/05/22 04:42:23;;;;;;;3.42;1.52;;;;;;;;;;2072679;28;20619;-61
2021/05/22 04:43:26;;;;;;;4.50;2.08;;;;;;;;;;2072478;28;20188;-62
2021/05/22 04:44:26;;;;;;;6.22;1.90;;;;;;;;;;2072768;28;20169;-62
2021/05/22 04:45:26;;;;;;;2.92;1.88;;;;;;;;;;2063210;28;20248;-62
2021/05/22 04:46:27;;;;;;;1.85;1.75;;;;;;;;;;2055881;28;20245;-58
2021/05/22 04:47:27;;;;;;;3.50;1.95;;;;;;;;;;2061603;28;20248;-63
2021/05/22 04:48:28;;;;;;;4.32;2.05;;;;;;;;;;2072051;28;20205;-61
2021/05/22 04:49:28;;;;;;;3.58;1.90;;;;;;;;;;2072423;28;20178;-62
2021/05/22 04:50:29;;;;;;;2.20;1.92;;;;;;;;;;2060339;28;20606;-60
2021/05/22 04:51:32;;;;;;;4.60;2.10;;;;;;;;;;2060511;28;20677;-62
2021/05/22 04:52:32;;;;;;;4.13;2.10;;;;;;;;;;2063773;28;20228;-61
2021/05/22 04:53:32;;;;;;;4.25;2.10;;;;;;;;;;2071610;28;20165;-62
2021/05/22 04:54:33;;;;;;;5.43;2.00;;;;;;;;;;2071576;28;20231;-62
2021/05/22 04:55:34;;;;;;;4.30;1.98;;;;;;;;;;2071716;28;20173;-63
2021/05/22 04:56:34;;;;;;;3.60;2.05;;;;;;;;;;2072155;28;20667;-60
2021/05/22 04:57:34;;;;;;;2.88;1.95;;;;;;;;;;2072277;28;20176;-63
2021/05/22 04:58:35;;;;;;;4.20;1.98;;;;;;;;;;2062635;28;20266;-61
2021/05/22 04:59:35;;;;;;;2.72;2.05;;;;;;;;;;2058522;28;20282;-61
2021/05/22 05:00:35;;;;;;;2.40;1.98;;;;;;;;;;2065700;28;20178;-61
2021/05/22 05:01:35;;;;;;;4.93;1.80;;;;;;;;;;2066166;28;20671;-60
2021/05/22 05:02:36;;;;;;;2.35;1.80;;;;;;;;;;2064964;28;20176;-62
2021/05/22 05:03:36;;;;;;;2.63;1.98;;;;;;;;;;2072348;28;20260;-62
2021/05/22 05:04:36;;;;;;;4.18;2.38;;;;;;;;;;2063844;28;20244;-61
2021/05/22 05:05:36;;;;;;;4.28;1.95;;;;;;;;;;2063803;28;20169;-62
2021/05/22 05:06:37;;;;;;;4.35;2.00;;;;;;;;;;2072388;28;20188;-61
2021/05/22 05:07:41;;;;;;;3.10;1.65;;;;;;;;;;2063179;28;20193;-61
2021/05/22 05:08:41;;;;;;;2.05;1.90;;;;;;;;;;2063736;28;20202;-62
2021/05/22 05:09:42;;;;;;;6.57;2.22;;;;;;;;;;2072379;28;20600;-59
2021/05/22 05:10:43;;;;;;;4.55;2.10;;;;;;;;;;2070470;28;20681;-59
2021/05/22 05:11:46;;;;;;;3.58;2.28;;;;;;;;;;2073180;28;20169;-61
2021/05/22 05:12:47;;;;;;;4.40;2.05;;;;;;;;;;2072638;28;20527;-61
2021/05/22 05:13:47;;;;;;;4.18;2.25;;;;;;;;;;2068988;28;20203;-59
2021/05/22 05:14:47;;;;;;;6.20;2.90;;;;;;;;;;2068153;28;20216;-59
2021/05/22 05:15:51;;;;;;;7.38;2.58;;;;;;;;;;2070474;28;20189;-60
2021/05/22 05:16:51;;;;;;;2.70;2.03;;;;;;;;;;2073834;28;20168;-60
2021/05/22 05:21:11;;;;;;;3.60;2.10;;;;;;;;;;2062788;28;20194;-61
2021/05/22 05:22:12;;;;;;;7.97;2.05;;;;;;;;;;2065597;28;20213;-61
2021/05/22 05:23:12;;;;;;;3.60;2.03;;;;;;;;;;2067759;28;20220;-60
2021/05/22 05:24:12;;;;;;;4.35;2.10;;;;;;;;;;2062983;28;20233;-62
2021/05/22 05:25:13;;;;;;;2.97;2.25;;;;;;;;;;2065021;28;20645;-61
2021/05/22 05:26:13;;;;;;;7.10;3.70;;;;;;;;;;2065184;28;20221;-61
2021/05/22 05:27:13;;;;;;;7.80;2.72;;;;;;;;;;2065088;28;20201;-62
2021/05/22 05:28:13;;;;;;;2.45;2.10;;;;;;;;;;2064921;28;20200;-62
2021/05/22 05:29:14;;;;;;;3.72;2.10;;;;;;;;;;2062633;28;20749;-62
2021/05/22 05:30:14;;;;;;;5.22;2.45;;;;;;;;;;2064935;28;20584;-61
2021/05/22 05:31:15;;;;;;;4.72;2.08;;;;;;;;;;2056423;28;20221;-61
2021/05/22 05:32:15;;;;;;;4.60;2.33;;;;;;;;;;2056394;28;20181;-62
2021/05/22 05:33:16;;;;;;;2.88;1.98;;;;;;;;;;2064025;28;20195;-63
2021/05/22 05:34:16;;;;;;;5.75;2.35;;;;;;;;;;2064305;28;20180;-62
2021/05/22 05:35:16;;;;;;;3.25;2.03;;;;;;;;;;2063525;28;20173;-62
2021/05/22 05:36:16;;;;;;;3.70;2.15;;;;;;;;;;2062998;23;22376;-62
2021/05/22 05:37:17;;;;;;;4.57;2.15;;;;;;;;;;2057705;28;20716;-63
2021/05/22 05:38:17;;;;;;;3.13;2.00;;;;;;;;;;2056240;28;20563;-62
2021/05/22 05:39:17;;;;;;;6.35;2.03;;;;;;;;;;2047674;29;20178;-63
2021/05/22 05:40:20;;;;;;;4.15;2.10;;;;;;;;;;2039651;29;20191;-62
2021/05/22 05:41:21;;;;;;;4.25;2.63;;;;;;;;;;2048342;28;20647;-62
2021/05/22 05:42:21;;;;;;;3.63;2.30;;;;;;;;;;2064426;28;20197;-62
2021/05/22 05:43:22;;;;;;;3.80;1.80;;;;;;;;;;2064353;28;20170;-61
2021/05/22 05:44:22;;;;;;;2.30;2.10;;;;;;;;;;2056906;28;20730;-60
2021/05/22 05:45:22;;;;;;;4.63;2.00;;;;;;;;;;2055852;28;20262;-60
2021/05/22 05:46:22;;;;;;;3.03;2.33;;;;;;;;;;2056138;28;20193;-60
2021/05/22 05:47:23;;;;;;;5.28;2.17;;;;;;;;;;2057159;28;20169;-59
2021/05/22 05:48:23;;;;;;;3.10;2.00;;;;;;;;;;2057027;28;20178;-60
2021/05/22 05:49:28;;;;;;;2.65;2.00;;;;;;;;;;2058027;28;20185;-59
2021/05/22 05:50:28;;;;;;;1.88;1.77;;;;;;;;;;2054773;28;20182;-62
2021/05/22 05:51:28;;;;;;;5.97;2.70;;;;;;;;;;2057250;28;20657;-62
2021/05/22 05:52:29;;;;;;;3.92;2.22;;;;;;;;;;2056726;28;20209;-61
2021/05/22 05:53:29;;;;;;;5.90;1.98;;;;;;;;;;2056370;28;20170;-63
2021/05/22 05:54:30;;;;;;;5.18;2.50;;;;;;;;;;2057160;28;20170;-61
2021/05/22 05:55:30;;;;;;;4.40;2.20;;;;;;;;;;2056612;28;20222;-65
2021/05/22 05:56:30;;;;;;;2.97;1.80;;;;;;;;;;2055765;28;20194;-63
2021/05/22 05:57:30;;;;;;;2.42;1.92;;;;;;;;;;2053229;28;20203;-63
2021/05/22 05:58:32;;;;;;;4.57;2.10;;;;;;;;;;2056083;28;20173;-63
2021/05/22 05:59:32;;;;;;;4.45;1.85;;;;;;;;;;2055175;28;20201;-60
2021/05/22 06:00:33;;;;;;;4.03;1.95;;;;;;;;;;2057027;28;20194;-60
2021/05/22 06:01:33;;;;;;;5.45;2.22;;;;;;;;;;2056379;28;20175;-63
2021/05/22 06:02:33;;;;;;;4.22;2.20;;;;;;;;;;2056544;28;20695;-61
2021/05/22 06:03:33;;;;;;;4.47;2.45;;;;;;;;;;2056324;28;20178;-60
2021/05/22 06:04:34;;;;;;;5.07;2.17;;;;;;;;;;2056579;28;20178;-60
2021/05/22 06:05:34;;;;;;;6.30;2.25;;;;;;;;;;2055660;28;20815;-60
2021/05/22 06:06:35;;;;;;;3.08;2.25;;;;;;;;;;2056555;28;20753;-61
2021/05/22 06:07:35;;;;;;;7.18;2.28;;;;;;;;;;2057851;28;20182;-59
2021/05/22 06:08:35;;;;;;;3.90;2.20;;;;;;;;;;2056412;28;20182;-60
2021/05/22 06:09:36;;;;;;;4.53;2.13;;;;;;;;;;2056355;28;20598;-62